Flight Track Log - Related Links

Times and Time Zones

All times are in EDT time to prevent confusion due to time zone crossing. See the AAL832 flight status page for this flight to view local times or setup timezone preferences in your user account.

Time Position Orientation Groundspeed Altitude Reporting Facility
EDT Latitude Longitude Course Direction KTS km/h feet Rate Location/Type
Tue 12:34:26 33.9350 -118.4300 264° West 179 332 1,500  Level FlightAware ADS-B
Tue 12:34:50 33.9330 -118.4590 265° West 222 410 1,900 1,650 Climbing FlightAware ADS-B
Tue 12:35:06 33.9280 -118.4800 254° West 243 451 2,600 2,667 Climbing FlightAware ADS-B
Tue 12:35:26 33.9210 -118.5040 251° West 250 463 3,500 2,700 Climbing FlightAware ADS-B
Tue 12:35:46 33.9120 -118.5310 248° West 261 483 4,400 3,375 Climbing FlightAware ADS-B
Tue 12:35:58 33.9040 -118.5460 237° Southwest 254 470 5,300 3,900 Climbing FlightAware ADS-B
Tue 12:36:06 33.8980 -118.5530 224° Southwest 246 455 5,700 3,500 Climbing FlightAware ADS-B
Tue 12:36:10 33.8930 -118.5570 214° Southwest 245 454 6,000 2,571 Climbing FlightAware ADS-B
Tue 12:36:20 33.8840 -118.5600 195° South 245 454 6,300 2,400 Climbing FlightAware ADS-B
Tue 12:36:40 33.8630 -118.5570 173° South 256 475 7,200 2,914 Climbing FlightAware ADS-B
Tue 12:36:55 33.8490 -118.5390 133° Southeast 261 483 8,000 3,000 Climbing FlightAware ADS-B
Tue 12:37:00 33.8470 -118.5330 112° Southeast 267 494 8,200 2,182 Climbing FlightAware ADS-B
Tue 12:37:06 33.8460 -118.5260 100° East 269 499 8,400 2,600 Climbing FlightAware ADS-B
Tue 12:37:30 33.8540 -118.4910 75° East 282 523 9,500 2,690 Climbing FlightAware ADS-B
Tue 12:37:35 33.8600 -118.4830 48° Northeast 290 538 9,700 1,500 Climbing FlightAware ADS-B
Tue 12:37:50 33.8750 -118.4690 38° Northeast 311 576 10,000 1,200 Climbing FlightAware ADS-B
Tue 12:38:25 33.9240 -118.4370 28° Northeast 355 658 10,700 1,440 Climbing FlightAware ADS-B
Tue 12:38:40 33.9430 -118.4170 41° Northeast 364 674 11,200 2,667 Climbing FlightAware ADS-B
Tue 12:39:10 33.9710 -118.3660 56° Northeast 363 673 12,700 2,704 Climbing FlightAware ADS-B
Tue 12:39:51 34.0080 -118.3000 56° Northeast 372 689 14,400 2,560 Climbing FlightAware ADS-B
Tue 12:40:25 34.0440 -118.2370 55° Northeast 384 711 15,900 2,400 Climbing FlightAware ADS-B
Tue 12:40:56 34.0730 -118.1850 56° Northeast 395 732 17,000 2,261 Climbing FlightAware ADS-B
Tue 12:41:34 34.1150 -118.1120 55° Northeast 405 750 18,500 2,514 Climbing FlightAware ADS-B
Tue 12:42:10 34.1530 -118.0440 56° Northeast 408 756 20,100 2,486 Climbing FlightAware ADS-B
Tue 12:42:44 34.1880 -117.9820 56° Northeast 410 760 21,400 2,229 Climbing FlightAware ADS-B
Tue 12:43:20 34.2280 -117.9110 56° Northeast 416 771 22,700 2,053 Climbing FlightAware ADS-B
Tue 12:44:00 34.2710 -117.8340 56° Northeast 416 771 24,000 1,950 Climbing FlightAware ADS-B
Tue 12:44:40 34.3200 -117.7570 52° Northeast 432 800 25,300 1,750 Climbing FlightAware ADS-B
Tue 12:45:12 34.3620 -117.6970 50° Northeast 440 814 26,100 1,254 Climbing FlightAware ADS-B
Tue 12:45:47 34.4030 -117.6400 49° Northeast 447 827 26,700 1,308 Climbing FlightAware ADS-B
Tue 12:46:30 34.4670 -117.5490 50° Northeast 461 855 27,800 1,443 Climbing FlightAware ADS-B
Tue 12:47:06 34.5180 -117.4760 50° Northeast 468 867 28,600 1,333 Climbing FlightAware ADS-B
Tue 12:47:42 34.5680 -117.4030 50° Northeast 472 874 29,400 1,588 Climbing FlightAware ADS-B
Tue 12:48:14 34.6130 -117.3390 49° Northeast 470 871 30,400 1,881 Climbing FlightAware ADS-B
Tue 12:48:49 34.6610 -117.2690 50° Northeast 464 859 31,500 1,676 Climbing FlightAware ADS-B
Tue 12:49:22 34.7070 -117.2030 50° Northeast 462 856 32,300 1,437 Climbing FlightAware ADS-B
Tue 12:50:00 34.7590 -117.1280 50° Northeast 461 855 33,200 1,417 Climbing FlightAware ADS-B
Tue 12:50:34 34.8050 -117.0610 50° Northeast 460 851 34,000 1,371 Climbing FlightAware ADS-B
Tue 12:51:10 34.8540 -116.9900 50° Northeast 457 847 34,800 649 Climbing FlightAware ADS-B
Tue 12:51:48 34.8980 -116.9260 50° Northeast 457 847 34,800 1,091 Level FlightAware ADS-B
Tue 12:52:16 34.9420 -116.8620 50° Northeast 494 914 36,000 1,217 Climbing FlightAware ADS-B
Tue 12:52:57 34.9870 -116.7950 51° Northeast 455 843 36,200 800 Climbing FlightAware ADS-B
Tue 12:53:31 35.0420 -116.7150 50° Northeast 452 837 37,000 727 Climbing FlightAware ADS-B
Tue 12:54:03 35.0840 -116.6530 50° Northeast 450 834 37,000  Level FlightAware ADS-B
Tue 12:54:41 35.1280 -116.5900 49° Northeast 450 834 37,000  Level FlightAware ADS-B
Tue 12:55:30 35.1920 -116.4950 50° Northeast 448 830 37,000  Level FlightAware ADS-B
Tue 12:56:06 35.2330 -116.4350 50° Northeast 448 830 37,000  Level FlightAware ADS-B
Tue 12:56:42 35.2740 -116.3760 50° Northeast 448 830 37,000  Level FlightAware ADS-B
Tue 12:57:18 35.3140 -116.3160 51° Northeast 448 830 37,000  Level FlightAware ADS-B
Tue 12:57:54 35.3550 -116.2570 50° Northeast 448 830 37,000  Level FlightAware ADS-B
Tue 12:58:33 35.4440 -116.1210 51° Northeast 449 832 37,000  Level FlightAware ADS-B
Tue 12:59:05 35.4860 -116.0580 51° Northeast 450 834 37,000  Level FlightAware ADS-B
Tue 12:59:42 35.5330 -115.9870 51° Northeast 451 835 37,000  Level FlightAware ADS-B
Tue 13:00:19 35.5810 -115.9160 50° Northeast 452 837 37,000  Level FlightAware ADS-B
Tue 13:00:51 35.6260 -115.8490 50° Northeast 452 837 37,000  Level FlightAware ADS-B
Tue 13:01:27 35.6740 -115.7770 51° Northeast 452 837 37,000  Level FlightAware ADS-B
Tue 13:02:03 35.7210 -115.7050 51° Northeast 452 837 37,000  Level FlightAware ADS-B
Tue 13:02:35 35.7630 -115.6410 51° Northeast 452 837 37,000  Level FlightAware ADS-B
Tue 13:03:11 35.8110 -115.5700 50° Northeast 454 840 37,000  Level FlightAware ADS-B
Tue 13:03:47 35.8590 -115.4960 51° Northeast 454 840 37,000  Level FlightAware ADS-B
Tue 13:04:24 35.9070 -115.4240 51° Northeast 455 843 37,000  Level FlightAware ADS-B
Tue 13:04:55 35.9490 -115.3600 51° Northeast 457 847 37,000  Level FlightAware ADS-B
Tue 13:05:27 35.9920 -115.2950 51° Northeast 457 847 37,000  Level FlightAware ADS-B
Tue 13:06:03 36.0390 -115.2220 51° Northeast 459 850 37,000  Level FlightAware ADS-B
Tue 13:06:40 36.0870 -115.1440 53° Northeast 458 848 37,000  Level FlightAware ADS-B
Tue 13:07:18 36.1270 -115.0600 59° Northeast 458 848 37,000  Level FlightAware ADS-B
Tue 13:07:54 36.1650 -114.9790 60° Northeast 458 848 37,000  Level FlightAware ADS-B
Tue 13:08:23 36.1940 -114.9150 61° Northeast 458 848 37,000  Level FlightAware ADS-B
Tue 13:08:58 36.2340 -114.8310 59° Northeast 459 850 37,000  Level FlightAware ADS-B
Tue 13:09:38 36.2740 -114.7440 60° Northeast 459 850 37,000  Level FlightAware ADS-B
Tue 13:10:12 36.3110 -114.6640 60° Northeast 460 851 37,000  Level FlightAware ADS-B
Tue 13:10:48 36.3490 -114.5830 60° Northeast 461 855 37,000  Level FlightAware ADS-B
Tue 13:11:22 36.3840 -114.5070 60° Northeast 462 856 37,000  Level FlightAware ADS-B
Tue 13:11:56 36.4220 -114.4260 60° Northeast 463 858 37,000  Level FlightAware ADS-B
Tue 13:12:32 36.4600 -114.3420 61° Northeast 464 859 37,000  Level FlightAware ADS-B
Tue 13:13:05 36.4940 -114.2680 60° Northeast 465 861 37,000  Level FlightAware ADS-B
Tue 13:13:40 36.5320 -114.1860 60° Northeast 467 864 37,000  Level FlightAware ADS-B
Tue 13:14:18 36.5740 -114.0940 60° Northeast 465 861 37,000  Level FlightAware ADS-B
Tue 13:14:54 36.6110 -114.0120 61° Northeast 463 858 37,000  Level FlightAware ADS-B
Tue 13:15:26 36.6450 -113.9380 60° Northeast 463 858 37,000  Level FlightAware ADS-B
Tue 13:16:02 36.6820 -113.8560 61° Northeast 463 858 37,000  Level FlightAware ADS-B
Tue 13:16:36 36.7190 -113.7750 60° Northeast 464 859 37,000  Level FlightAware ADS-B
Tue 13:17:12 36.7560 -113.6930 61° Northeast 464 859 37,000  Level FlightAware ADS-B
Tue 13:17:45 36.7880 -113.6220 61° Northeast 464 859 37,000  Level FlightAware ADS-B
Tue 13:18:20 36.8280 -113.5340 60° Northeast 464 859 37,000  Level FlightAware ADS-B
Tue 13:18:56 36.8650 -113.4500 61° Northeast 464 859 37,000  Level FlightAware ADS-B
Tue 13:19:30 36.9020 -113.3680 61° Northeast 465 861 37,000  Level FlightAware ADS-B
Tue 13:20:06 36.9390 -113.2850 61° Northeast 465 861 37,000  Level FlightAware ADS-B
Tue 13:20:42 36.9770 -113.2000 61° Northeast 465 861 37,000  Level FlightAware ADS-B
Tue 13:21:14 37.0120 -113.1260 59° Northeast 467 864 37,000  Level FlightAware ADS-B
Tue 13:21:52 37.0580 -113.0440 55° Northeast 466 863 37,000  Level FlightAware ADS-B
Tue 13:22:24 37.0970 -112.9720 56° Northeast 465 861 37,000  Level FlightAware ADS-B
Tue 13:23:00 37.1400 -112.8940 55° Northeast 465 861 37,000  Level FlightAware ADS-B
Tue 13:23:38 37.1880 -112.8070 55° Northeast 464 859 37,000  Level FlightAware ADS-B
Tue 13:24:23 37.2380 -112.7170 55° Northeast 463 858 37,000  Level FlightAware ADS-B
Tue 13:25:01 37.2780 -112.6460 55° Northeast 463 858 37,000  Level FlightAware ADS-B
Tue 13:25:37 37.3150 -112.5780 56° Northeast 463 858 37,000  Level FlightAware ADS-B
Tue 13:26:13 37.3530 -112.5110 54° Northeast 463 858 37,000  Level FlightAware ADS-B
Tue 13:26:49 37.3900 -112.4430 56° Northeast 463 858 37,000  Level FlightAware ADS-B
Tue 13:27:25 37.4280 -112.3750 55° Northeast 463 858 37,000  Level FlightAware ADS-B
Tue 13:28:01 37.4660 -112.3080 54° Northeast 463 858 37,000  Level FlightAware ADS-B
Tue 13:28:38 37.5040 -112.2380 56° Northeast 463 858 37,000  Level FlightAware ADS-B
Tue 13:29:16 37.5440 -112.1670 55° Northeast 463 858 37,000  Level FlightAware ADS-B
Tue 13:29:50 37.5790 -112.1030 55° Northeast 463 858 37,000  Level FlightAware ADS-B
Tue 13:30:26 37.6170 -112.0350 55° Northeast 463 858 37,000  Level FlightAware ADS-B
Tue 13:31:02 37.6550 -111.9670 55° Northeast 463 858 37,000  Level FlightAware ADS-B
Tue 13:31:39 37.6930 -111.8980 55° Northeast 463 858 37,000  Level FlightAware ADS-B
Tue 13:32:15 37.7310 -111.8300 55° Northeast 463 858 37,000  Level FlightAware ADS-B
Tue 13:32:51 37.7680 -111.7620 55° Northeast 463 858 37,000  Level FlightAware ADS-B
Tue 13:33:27 37.8060 -111.6940 55° Northeast 463 858 37,000  Level FlightAware ADS-B
Tue 13:36:26 38.0380 -111.0470 65° Northeast 458 848 37,000  Level FlightAware ADS-B
Tue 13:37:02 38.0700 -110.9710 62° Northeast 457 847 37,000  Level FlightAware ADS-B
Tue 13:37:35 38.1050 -110.8860 62° Northeast 457 847 37,000  Level FlightAware ADS-B
Tue 13:38:19 38.1450 -110.7880 63° Northeast 457 847 37,000  Level FlightAware ADS-B
Tue 13:38:52 38.1800 -110.7050 62° Northeast 455 843 37,000  Level FlightAware ADS-B
Tue 13:39:30 38.2130 -110.6250 62° Northeast 455 843 37,000  Level FlightAware ADS-B
Tue 13:40:12 38.2530 -110.5270 63° Northeast 455 843 37,000  Level FlightAware ADS-B
Tue 13:40:52 38.2930 -110.4280 63° Northeast 456 845 37,000  Level FlightAware ADS-B
Tue 13:41:33 38.3330 -110.3300 62° Northeast 457 847 37,000  Level FlightAware ADS-B
Tue 13:42:06 38.3690 -110.2440 62° Northeast 458 848 37,000  Level FlightAware ADS-B
Tue 13:42:43 38.4050 -110.1560 62° Northeast 459 850 37,000  Level FlightAware ADS-B
Tue 13:43:20 38.4420 -110.0630 63° Northeast 459 850 37,000  Level FlightAware ADS-B
Tue 13:43:53 38.4740 -109.9840 63° Northeast 460 851 37,000  Level FlightAware ADS-B
Tue 13:44:05 38.4870 -109.9560 59° Northeast 464 859 37,000  Level FlightAware ADS-B
Tue 13:44:42 38.5330 -109.8970 45° Northeast 464 859 37,000  Level FlightAware ADS-B
Tue 13:45:24 38.5940 -109.8090 48° Northeast 458 848 37,000  Level FlightAware ADS-B
Tue 13:45:53 38.6290 -109.7280 61° Northeast 457 847 37,000  Level FlightAware ADS-B
Tue 13:46:27 38.6610 -109.6500 62° Northeast 457 847 37,000  Level FlightAware ADS-B
Tue 13:47:04 38.6920 -109.5660 65° Northeast 457 847 37,000  Level FlightAware ADS-B
Tue 13:47:34 38.7190 -109.4900 65° Northeast 456 845 37,000  Level FlightAware ADS-B
Tue 13:48:12 38.7540 -109.3890 66° East 456 845 37,000  Level FlightAware ADS-B
Tue 13:48:43 38.7770 -109.3260 65° Northeast 455 843 37,000  Level FlightAware ADS-B
Tue 13:49:20 38.8130 -109.2220 66° East 456 845 37,000  Level FlightAware ADS-B
Tue 13:49:59 38.8470 -109.1270 65° Northeast 456 845 37,000  Level FlightAware ADS-B
Tue 13:50:29 38.8740 -109.0510 65° Northeast 457 847 37,000  Level FlightAware ADS-B
Tue 13:51:07 38.9070 -108.9570 66° East 457 847 37,000  Level FlightAware ADS-B
Tue 13:51:42 38.9340 -108.8790 66° East 457 847 37,000  Level FlightAware ADS-B
Tue 13:52:16 38.9660 -108.7870 66° East 457 847 37,000  Level FlightAware ADS-B
Tue 13:52:49 38.9910 -108.7150 66° East 457 847 37,000  Level FlightAware ADS-B
Tue 13:53:30 39.0300 -108.6030 66° East 458 848 37,000  Level FlightAware ADS-B
Tue 13:54:11 39.0630 -108.5090 66° East 459 850 37,000  Level FlightAware ADS-B
Tue 13:54:51 39.1000 -108.4010 66° East 461 855 37,000  Level FlightAware ADS-B
Tue 13:55:25 39.1290 -108.3160 66° East 461 855 37,000  Level FlightAware ADS-B
Tue 13:56:01 39.1570 -108.2340 66° East 462 856 37,000  Level FlightAware ADS-B
Tue 13:56:44 39.1960 -108.1200 66° East 461 855 37,000  Level FlightAware ADS-B
Tue 13:57:18 39.2240 -108.0390 66° East 459 850 37,000  Level FlightAware ADS-B
Tue 13:57:55 39.2580 -107.9380 66° East 458 848 37,000  Level FlightAware ADS-B
Tue 13:58:26 39.2840 -107.8610 66° East 458 848 37,000  Level FlightAware ADS-B
Tue 13:59:04 39.3150 -107.7670 67° East 457 847 37,000  Level FlightAware ADS-B
Tue 13:59:36 39.3410 -107.6890 67° East 458 848 37,000  Level FlightAware ADS-B
Tue 14:00:01 39.3640 -107.6220 66° East 460 851 37,000  Level FlightAware ADS-B
Tue 14:00:31 39.3897 -107.5450 67° East 460 851 37,000  Level FlightAware ADS-B
Tue 14:01:02 39.4154 -107.4690 66° East 460 851 37,000  Level FlightAware ADS-B
Tue 14:01:33 39.4418 -107.3880 67° East 460 851 37,000  Level FlightAware ADS-B
Tue 14:02:04 39.4670 -107.3120 67° East 459 850 37,000  Level FlightAware ADS-B
Tue 14:02:35 39.4927 -107.2340 67° East 458 848 37,000  Level FlightAware ADS-B
Tue 14:03:05 39.5177 -107.1590 67° East 457 847 37,000  Level FlightAware ADS-B
Tue 14:03:35 39.5426 -107.0830 67° East 457 847 37,000  Level FlightAware ADS-B
Tue 14:04:05 39.5674 -107.0080 67° East 454 840 37,000  Level FlightAware ADS-B
Tue 14:04:35 39.5919 -106.9330 67° East 453 838 37,000  Level FlightAware ADS-B
Tue 14:05:06 39.6169 -106.8560 67° East 452 837 37,000  Level FlightAware ADS-B
Tue 14:05:36 39.6411 -106.7810 67° East 451 835 37,000  Level FlightAware ADS-B
Tue 14:06:06 39.6657 -106.7060 67° East 451 835 37,000  Level FlightAware ADS-B
Tue 14:06:36 39.6899 -106.6310 67° East 451 835 37,000  Level FlightAware ADS-B
Tue 14:07:06 39.7139 -106.5560 67° East 450 834 37,000  Level FlightAware ADS-B
Tue 14:07:37 39.7383 -106.4810 67° East 450 834 37,000  Level FlightAware ADS-B
Tue 14:08:07 39.7628 -106.4040 67° East 449 832 37,000  Level FlightAware ADS-B
Tue 14:08:38 39.7867 -106.3300 67° East 448 830 37,000  Level FlightAware ADS-B
Tue 14:09:08 39.8105 -106.2550 68° East 447 827 37,000  Level FlightAware ADS-B
Tue 14:09:40 39.8360 -106.1750 67° East 447 827 37,000  Level FlightAware ADS-B
Tue 14:10:10 39.8599 -106.1000 67° East 446 826 37,000  Level FlightAware ADS-B
Tue 14:10:40 39.8833 -106.0250 68° East 446 826 37,000  Level FlightAware ADS-B
Tue 14:11:14 39.9096 -105.9420 68° East 446 826 37,000  Level FlightAware ADS-B
Tue 14:11:44 39.9331 -105.8670 68° East 446 826 37,000  Level FlightAware ADS-B
Tue 14:12:15 39.9572 -105.7910 68° East 447 827 37,000  Level FlightAware ADS-B
Tue 14:12:47 39.9821 -105.7110 68° East 447 827 37,000  Level FlightAware ADS-B
Tue 14:13:18 40.0062 -105.6340 68° East 449 832 37,000  Level FlightAware ADS-B
Tue 14:13:48 40.0294 -105.5590 68° East 449 832 37,000  Level FlightAware ADS-B
Tue 14:14:23 40.0570 -105.4700 68° East 450 834 37,000  Level FlightAware ADS-B
Tue 14:14:54 40.0810 -105.3930 68° East 450 834 37,000  Level FlightAware ADS-B
Tue 14:15:31 40.1096 -105.3000 68° East 450 834 37,000  Level FlightAware ADS-B
Tue 14:16:01 40.1329 -105.2240 68° East 449 832 37,000  Level FlightAware ADS-B
Tue 14:16:32 40.1563 -105.1480 68° East 448 830 37,000  Level FlightAware ADS-B
Tue 14:17:02 40.1793 -105.0720 68° East 446 826 37,000  Level FlightAware ADS-B
Tue 14:17:33 40.2029 -104.9950 68° East 444 822 37,000  Level FlightAware ADS-B
Tue 14:18:03 40.2257 -104.9200 68° East 443 821 37,000  Level FlightAware ADS-B
Tue 14:18:33 40.2484 -104.8450 68° East 442 819 37,000  Level FlightAware ADS-B
Tue 14:19:04 40.2712 -104.7690 69° East 441 816 37,000  Level FlightAware ADS-B
Tue 14:19:34 40.2935 -104.6950 68° East 440 814 37,000  Level FlightAware ADS-B
Tue 14:20:04 40.3160 -104.6200 69° East 440 814 37,000  Level FlightAware ADS-B
Tue 14:20:34 40.3384 -104.5460 68° East 439 813 37,000  Level FlightAware ADS-B
Tue 14:21:04 40.3607 -104.4710 69° East 439 813 37,000  Level FlightAware ADS-B
Tue 14:21:34 40.3828 -104.3970 69° East 439 813 37,000  Level FlightAware ADS-B
Tue 14:22:05 40.4055 -104.3210 69° East 440 814 37,000  Level FlightAware ADS-B
Tue 14:22:35 40.4278 -104.2450 69° East 441 816 37,000  Level FlightAware ADS-B
Tue 14:23:06 40.4504 -104.1680 69° East 441 816 37,000  Level FlightAware ADS-B
Tue 14:23:37 40.4727 -104.0930 69° East 443 821 37,000  Level FlightAware ADS-B
Tue 14:24:12 40.4988 -104.0040 69° East 443 821 37,000  Level FlightAware ADS-B
Tue 14:24:43 40.5191 -103.9270 71° East 445 824 37,000  Level FlightAware ADS-B
Tue 14:25:13 40.5389 -103.8500 71° East 444 822 37,000  Level FlightAware ADS-B
Tue 14:25:43 40.5591 -103.7720 71° East 445 824 37,000  Level FlightAware ADS-B
Tue 14:26:17 40.5814 -103.6850 71° East 445 824 37,000  Level FlightAware ADS-B
Tue 14:26:49 40.6024 -103.6030 71° East 445 824 37,000  Level FlightAware ADS-B
Tue 14:27:20 40.6225 -103.5250 71° East 446 826 37,000  Level FlightAware ADS-B
Tue 14:27:50 40.6422 -103.4480 71° East 446 826 37,000  Level FlightAware ADS-B
Tue 14:28:22 40.6634 -103.3650 71° East 447 827 37,000  Level FlightAware ADS-B
Tue 14:28:53 40.6833 -103.2860 72° East 447 827 37,000  Level FlightAware ADS-B
Tue 14:29:24 40.7038 -103.2050 72° East 447 827 37,000  Level FlightAware ADS-B
Tue 14:29:54 40.7231 -103.1280 72° East 447 827 37,000  Level FlightAware ADS-B
Tue 14:30:24 40.7428 -103.0500 72° East 445 824 37,000  Level FlightAware ADS-B
Tue 14:30:55 40.7623 -102.9720 72° East 443 821 37,000  Level FlightAware ADS-B
Tue 14:31:25 40.7816 -102.8950 72° East 443 821 37,000  Level FlightAware ADS-B
Tue 14:32:18 40.8155 -102.7580 72° East 442 819 37,000  Level FlightAware ADS-B
Tue 14:32:49 40.8346 -102.6800 72° East 441 816 37,000  Level FlightAware ADS-B
Tue 14:33:20 40.8542 -102.6010 72° East 440 814 37,000  Level FlightAware ADS-B
Tue 14:33:50 40.8731 -102.5240 72° East 440 814 37,000  Level FlightAware ADS-B
Tue 14:34:21 40.8922 -102.4460 72° East 440 814 37,000  Level FlightAware ADS-B
Tue 14:34:51 40.9111 -102.3690 72° East 440 814 37,000  Level FlightAware ADS-B
Tue 14:35:23 40.9305 -102.2880 72° East 440 814 37,000  Level FlightAware ADS-B
Tue 14:35:53 40.9494 -102.2100 72° East 440 814 37,000  Level FlightAware ADS-B
Tue 14:36:26 40.9696 -102.1260 72° East 440 814 37,000  Level FlightAware ADS-B
Tue 14:36:56 40.9882 -102.0490 72° East 441 816 37,000  Level FlightAware ADS-B
Tue 14:37:17 41.0010 -101.9960 72° East 441 816 37,000  Level FlightAware ADS-B
Tue 14:37:47 41.0216 -101.9200 70° East 441 816 37,000  Level FlightAware ADS-B
Tue 14:38:18 41.0427 -101.8420 70° East 441 816 37,000  Level FlightAware ADS-B
Tue 14:39:42 41.1002 -101.6280 70° East 442 819 37,000  Level FlightAware ADS-B
Tue 14:40:12 41.1209 -101.5500 71° East 442 819 37,000  Level FlightAware ADS-B
Tue 14:40:43 41.1418 -101.4720 70° East 443 821 37,000  Level FlightAware ADS-B
Tue 14:41:14 41.1629 -101.3920 71° East 443 821 37,000  Level FlightAware ADS-B
Tue 14:41:45 41.1836 -101.3140 71° East 443 821 37,000  Level FlightAware ADS-B
Tue 14:42:16 41.2046 -101.2340 71° East 441 816 37,000  Level FlightAware ADS-B
Tue 14:43:13 41.2369 -101.1156 71° East 440 814 37,000  Level Denver Center
Tue 14:44:15 41.2811 -100.9431 71° East 437 810 37,000  Level Denver Center
Tue 14:45:17 41.3200 -100.7964 71° East 437 810 37,000  Level Denver Center
Tue 14:46:19 41.3644 -100.6250 71° East 438 811 37,000  Level Denver Center
Tue 14:47:21 41.4017 -100.4792 71° East 433 801 37,000  Level Denver Center
Tue 14:48:24 41.4444 -100.3092 71° East 432 800 37,000  Level Denver Center
Tue 14:49:26 41.4789 -100.1608 73° East 434 803 37,000  Level Denver Center
Tue 14:50:40 41.5206 -99.9619 74° East 435 806 37,000  Level Denver Center
Tue 14:51:42 41.5536 -99.8156 73° East 433 801 37,000  Level Denver Center
Tue 14:52:44 41.5889 -99.6578 73° East 431 798 37,000  Level Denver Center
Tue 14:53:46 41.6214 -99.5028 74° East 430 797 37,000  Level Denver Center
Tue 14:54:48 41.6550 -99.3481 74° East 431 798 37,000  Level Denver Center
Tue 14:55:50 41.6944 -99.1611 74° East 432 800 37,000  Level Denver Center
Tue 15:02:01 41.8950 -98.1940 74° East 434 803 37,000  Level FlightAware ADS-B
Tue 15:02:34 41.9120 -98.1080 75° East 433 801 37,000  Level FlightAware ADS-B
Tue 15:03:09 41.9300 -98.0180 75° East 432 800 37,000  Level FlightAware ADS-B
Tue 15:03:49 41.9490 -97.9250 75° East 432 800 37,000  Level FlightAware ADS-B
Tue 15:04:26 41.9650 -97.8430 75° East 432 800 37,000  Level FlightAware ADS-B
Tue 15:05:14 41.9920 -97.7080 75° East 433 801 37,000  Level FlightAware ADS-B
Tue 15:05:50 42.0080 -97.6280 75° East 433 801 37,000  Level FlightAware ADS-B
Tue 15:06:26 42.0240 -97.5490 75° East 433 801 37,000  Level FlightAware ADS-B
Tue 15:06:56 42.0460 -97.4260 76° East 435 806 37,000  Level FlightAware ADS-B
Tue 15:07:41 42.0600 -97.3040 81° East 438 811 37,000  Level FlightAware ADS-B
Tue 15:08:14 42.0700 -97.2170 81° East 437 810 37,000  Level FlightAware ADS-B
Tue 15:08:51 42.0810 -97.1170 82° East 437 810 37,000  Level FlightAware ADS-B
Tue 15:09:29 42.0910 -97.0260 82° East 437 810 37,000  Level FlightAware ADS-B
Tue 15:10:06 42.1010 -96.9410 81° East 437 810 37,000  Level FlightAware ADS-B
Tue 15:10:43 42.1130 -96.8190 82° East 437 810 37,000  Level FlightAware ADS-B
Tue 15:11:18 42.1230 -96.7270 82° East 437 810 37,000  Level FlightAware ADS-B
Tue 15:11:55 42.1340 -96.6200 82° East 438 811 37,000  Level FlightAware ADS-B
Tue 15:12:29 42.1440 -96.5330 81° East 439 813 37,000  Level FlightAware ADS-B
Tue 15:13:11 42.1560 -96.4170 82° East 440 814 37,000  Level FlightAware ADS-B
Tue 15:14:00 42.1700 -96.2820 82° East 439 813 37,000  Level FlightAware ADS-B
Tue 15:14:34 42.1790 -96.1930 82° East 436 808 37,000  Level FlightAware ADS-B
Tue 15:15:09 42.1880 -96.1000 83° East 433 801 37,000  Level FlightAware ADS-B
Tue 15:15:42 42.1970 -96.0100 82° East 433 801 37,000  Level FlightAware ADS-B
Tue 15:16:17 42.2070 -95.9170 82° East 431 798 37,000  Level FlightAware ADS-B
Tue 15:16:54 42.2160 -95.8270 82° East 430 797 37,000  Level FlightAware ADS-B
Tue 15:17:26 42.2240 -95.7430 83° East 431 798 37,000  Level FlightAware ADS-B
Tue 15:18:06 42.2350 -95.6250 83° East 432 800 37,000  Level FlightAware ADS-B
Tue 15:18:39 42.2440 -95.5400 82° East 433 801 37,000  Level FlightAware ADS-B
Tue 15:19:15 42.2530 -95.4430 83° East 433 801 37,000  Level FlightAware ADS-B
Tue 15:19:51 42.2620 -95.3460 83° East 434 803 37,000  Level FlightAware ADS-B
Tue 15:20:22 42.2700 -95.2630 83° East 434 803 37,000  Level FlightAware ADS-B
Tue 15:20:57 42.2780 -95.1720 83° East 434 803 37,000  Level FlightAware ADS-B
Tue 15:21:34 42.2880 -95.0700 82° East 433 801 37,000  Level FlightAware ADS-B
Tue 15:22:10 42.2970 -94.9720 83° East 433 801 37,000  Level FlightAware ADS-B
Tue 15:22:46 42.3050 -94.8760 84° East 432 800 37,000  Level FlightAware ADS-B
Tue 15:23:20 42.3130 -94.7860 83° East 431 798 37,000  Level FlightAware ADS-B
Tue 15:23:52 42.3210 -94.7010 83° East 430 797 37,000  Level FlightAware ADS-B
Tue 15:24:31 42.3300 -94.6000 83° East 429 795 37,000  Level FlightAware ADS-B
Tue 15:25:04 42.3380 -94.5110 83° East 427 790 37,000  Level FlightAware ADS-B
Tue 15:25:40 42.3460 -94.4140 84° East 427 790 37,000  Level FlightAware ADS-B
Tue 15:26:15 42.3530 -94.3270 84° East 426 789 37,000  Level FlightAware ADS-B
Tue 15:26:52 42.3620 -94.2240 83° East 425 787 37,000  Level FlightAware ADS-B
Tue 15:27:24 42.3690 -94.1390 84° East 425 787 37,000  Level FlightAware ADS-B
Tue 15:28:01 42.3770 -94.0480 83° East 424 785 37,000  Level FlightAware ADS-B
Tue 15:28:36 42.3850 -93.9530 83° East 424 785 37,000  Level FlightAware ADS-B
Tue 15:29:09 42.3920 -93.8670 84° East 426 789 37,000  Level FlightAware ADS-B
Tue 15:29:37 42.3980 -93.7900 84° East 427 790 37,000  Level FlightAware ADS-B
Tue 15:30:13 42.4060 -93.6940 84° East 428 793 37,000  Level FlightAware ADS-B
Tue 15:30:49 42.4130 -93.5990 84° East 428 793 37,000  Level FlightAware ADS-B
Tue 15:31:22 42.4200 -93.5090 84° East 429 795 37,000  Level FlightAware ADS-B
Tue 15:31:54 42.4270 -93.4250 84° East 429 795 37,000  Level FlightAware ADS-B
Tue 15:32:33 42.4350 -93.3230 84° East 429 795 37,000  Level FlightAware ADS-B
Tue 15:33:09 42.4420 -93.2250 84° East 430 797 37,000  Level FlightAware ADS-B
Tue 15:33:45 42.4490 -93.1290 84° East 430 797 37,000  Level FlightAware ADS-B
Tue 15:34:20 42.4560 -93.0360 84° East 430 797 37,000  Level FlightAware ADS-B
Tue 15:34:51 42.4620 -92.9520 84° East 429 795 37,000 -261 Level FlightAware ADS-B
Tue 15:35:29 42.4690 -92.8530 84° East 425 787 36,700 -592 Descending FlightAware ADS-B
Tue 15:36:02 42.4760 -92.7640 84° East 425 787 36,300 -706 Descending FlightAware ADS-B
Tue 15:36:37 42.4820 -92.6760 85° East 429 795 35,900 -833 Descending FlightAware ADS-B
Tue 15:37:14 42.4900 -92.5720 84° East 427 790 35,300 -857 Descending FlightAware ADS-B
Tue 15:37:47 42.4950 -92.4860 85° East 426 789 34,900 -794 Descending FlightAware ADS-B
Tue 15:38:22 42.5020 -92.3930 84° East 428 793 34,400 -833 Descending FlightAware ADS-B
Tue 15:38:59 42.5080 -92.2960 85° East 429 795 33,900 -917 Descending FlightAware ADS-B
Tue 15:39:34 42.5150 -92.1990 84° East 430 797 33,300 -627 Descending FlightAware ADS-B
Tue 15:40:06 42.5200 -92.1190 85° East 429 795 33,200 -435 Descending FlightAware ADS-B
Tue 15:40:43 42.5240 -92.0160 87° East 431 798 32,800 -750 Descending FlightAware ADS-B
Tue 15:41:18 42.5250 -91.9240 89° East 432 800 32,300 -930 Descending FlightAware ADS-B
Tue 15:41:54 42.5250 -91.8220 90° East 430 797 31,700 -870 Descending FlightAware ADS-B
Tue 15:42:27 42.5260 -91.7360 89° East 432 800 31,300 -783 Descending FlightAware ADS-B
Tue 15:43:03 42.5260 -91.6410 90° East 435 806 30,800 -904 Descending FlightAware ADS-B
Tue 15:43:40 42.5270 -91.5400 89° East 441 816 30,200 -904 Descending FlightAware ADS-B
Tue 15:44:16 42.5270 -91.4350 90° East 441 816 29,700 -896 Descending FlightAware ADS-B
Tue 15:44:47 42.5270 -91.3510 90° East 442 819 29,200 -882 Descending FlightAware ADS-B
Tue 15:45:24 42.5270 -91.2500 90° East 440 814 28,700 -818 Descending FlightAware ADS-B
Tue 15:45:53 42.5270 -91.1690 90° East 445 824 28,300 -833 Descending FlightAware ADS-B
Tue 15:46:36 42.5270 -91.0460 90° East 448 830 27,700 -917 Descending FlightAware ADS-B
Tue 15:47:05 42.5270 -90.9660 90° East 446 826 27,200 -957 Descending FlightAware ADS-B
Tue 15:47:45 42.5270 -90.8590 90° East 442 819 26,600 -917 Descending FlightAware ADS-B
Tue 15:48:17 42.5270 -90.7680 90° East 440 814 26,100 -870 Descending FlightAware ADS-B
Tue 15:48:54 42.5260 -90.6640 91° East 437 810 25,600 -845 Descending FlightAware ADS-B
Tue 15:49:28 42.5250 -90.5720 91° East 435 806 25,100 -930 Descending FlightAware ADS-B
Tue 15:50:05 42.5240 -90.4740 91° East 437 810 24,500 -943 Descending FlightAware ADS-B
Tue 15:50:38 42.5230 -90.3810 91° East 433 801 24,000 -469 Descending FlightAware ADS-B
Tue 15:51:09 42.5230 -90.3040 90° East 431 798 24,000  Level FlightAware ADS-B
Tue 15:51:50 42.5220 -90.1890 91° East 428 793 24,000  Level FlightAware ADS-B
Tue 15:52:22 42.5210 -90.1040 91° East 426 789 24,000  Level FlightAware ADS-B
Tue 15:53:00 42.5210 -90.0020 90° East 423 784 24,000  Level FlightAware ADS-B
Tue 15:53:36 42.5200 -89.9160 91° East 422 782 24,000  Level FlightAware ADS-B
Tue 15:54:06 42.5190 -89.8310 91° East 421 779 24,000  Level FlightAware ADS-B
Tue 15:54:41 42.5180 -89.7410 91° East 420 777 24,000  Level FlightAware ADS-B
Tue 15:55:17 42.5170 -89.6490 91° East 420 777 24,000 -740 Level FlightAware ADS-B
Tue 15:55:54 42.5150 -89.5480 92° East 413 764 23,100 -2,137 Descending FlightAware ADS-B
Tue 15:56:30 42.5140 -89.4560 91° East 411 761 21,400 -2,294 Descending FlightAware ADS-B
Tue 15:57:02 42.5120 -89.3760 92° East 398 737 20,500 -1,970 Descending FlightAware ADS-B
Tue 15:57:37 42.5110 -89.2880 91° East 392 726 19,200 -1,973 Descending FlightAware ADS-B
Tue 15:58:15 42.5090 -89.2020 92° East 394 729 18,100 -1,865 Descending FlightAware ADS-B
Tue 15:58:51 42.5080 -89.1100 91° East 390 723 16,900 -2,118 Descending FlightAware ADS-B
Tue 15:59:23 42.5080 -89.0310 90° East 383 710 15,700 -2,382 Descending FlightAware ADS-B
Tue 15:59:59 42.5050 -88.9400 93° East 376 697 14,200 -2,055 Descending FlightAware ADS-B
Tue 16:00:36 42.4840 -88.8600 110° East 372 689 13,200 -1,324 Descending FlightAware ADS-B
Tue 16:01:07 42.4640 -88.7940 112° Southeast 365 676 12,700 -1,091 Descending FlightAware ADS-B
Tue 16:01:42 42.4420 -88.7210 112° Southeast 359 665 12,000 -1,286 Descending FlightAware ADS-B
Tue 16:02:17 42.4200 -88.6480 112° Southeast 354 655 11,200 -1,417 Descending FlightAware ADS-B
Tue 16:02:54 42.3980 -88.5740 112° Southeast 353 653 10,300 -1,368 Descending FlightAware ADS-B
Tue 16:03:14 42.3850 -88.5330 113° Southeast 354 655 9,900 -750 Descending FlightAware ADS-B
Tue 16:03:34 42.3730 -88.4920 112° Southeast 351 650 9,800  Descending FlightAware ADS-B
Tue 16:03:50 42.3630 -88.4590 112° Southeast 348 644 9,900 167 Climbing FlightAware ADS-B
Tue 16:04:10 42.3510 -88.4200 113° Southeast 344 637 9,900  Level FlightAware ADS-B
Tue 16:04:30 42.3360 -88.3820 118° Southeast 345 639 9,900  Level FlightAware ADS-B
Tue 16:04:44 42.3220 -88.3580 128° Southeast 347 642 9,900  Level FlightAware ADS-B
Tue 16:04:57 42.3090 -88.3350 127° Southeast 347 642 9,900 -158 Level FlightAware ADS-B
Tue 16:05:22 42.2840 -88.2940 129° Southeast 328 607 9,800 -133 Descending FlightAware ADS-B
Tue 16:05:42 42.2660 -88.2630 128° Southeast 307 568 9,800 -450 Level FlightAware ADS-B
Tue 16:06:02 42.2490 -88.2350 129° Southeast 295 546 9,500 -968 Descending FlightAware ADS-B
Tue 16:06:13 42.2380 -88.2180 131° Southeast 290 538 9,300 -1,167 Descending FlightAware ADS-B
Tue 16:06:38 42.2190 -88.1850 128° Southeast 284 526 8,800 -1,304 Descending FlightAware ADS-B
Tue 16:06:59 42.2000 -88.1550 131° Southeast 281 520 8,300 -1,333 Descending FlightAware ADS-B
Tue 16:07:14 42.1870 -88.1370 134° Southeast 278 515 8,000 -1,371 Descending FlightAware ADS-B
Tue 16:07:34 42.1680 -88.1150 139° Southeast 277 513 7,500 -1,500 Descending FlightAware ADS-B
Tue 16:07:46 42.1560 -88.1010 139° Southeast 278 515 7,200 -1,125 Descending FlightAware ADS-B
Tue 16:08:06 42.1370 -88.0790 139° Southeast 275 509 6,900 -409 Descending FlightAware ADS-B
Tue 16:08:30 42.1140 -88.0530 140° Southeast 272 504 6,900  Level FlightAware ADS-B
Tue 16:08:38 42.1070 -88.0420 131° Southeast 272 504 6,900  Level FlightAware ADS-B
Tue 16:08:58 42.0940 -88.0120 120° Southeast 275 509 6,900  Level FlightAware ADS-B
Tue 16:09:09 42.0920 -87.9940 99° East 277 513 6,900  Level FlightAware ADS-B
Tue 16:09:32 42.0920 -87.9580 90° East 277 513 6,900 -140 Level FlightAware ADS-B
Tue 16:09:52 42.0920 -87.9200 90° East 273 505 6,800  Descending FlightAware ADS-B
Tue 16:10:17 42.0920 -87.8850 90° East 268 496 6,900 120 Climbing FlightAware ADS-B
Tue 16:10:42 42.0920 -87.8460 90° East 243 451 6,900  Level FlightAware ADS-B
Tue 16:11:02 42.0920 -87.8140 90° East 241 446 6,900 -818 Level FlightAware ADS-B
Tue 16:11:26 42.0920 -87.7780 90° East 237 439 6,300 -1,636 Descending FlightAware ADS-B
Tue 16:11:46 42.0920 -87.7480 90° East 234 433 5,700 -1,875 Descending FlightAware ADS-B
Tue 16:11:58 42.0920 -87.7310 90° East 232 430 5,300 -1,714 Descending FlightAware ADS-B
Tue 16:12:14 42.0920 -87.7070 90° East 232 430 4,900 -1,421 Descending FlightAware ADS-B
Tue 16:12:36 42.0920 -87.6760 90° East 229 425 4,400 -1,412 Descending FlightAware ADS-B
Tue 16:12:48 42.0900 -87.6590 99° East 223 414 4,100 -1,500 Descending FlightAware ADS-B
Tue 16:12:56 42.0860 -87.6490 118° Southeast 219 406 3,900 -1,059 Descending FlightAware ADS-B
Tue 16:13:05 42.0820 -87.6430 132° Southeast 214 396 3,800 -923 Descending FlightAware ADS-B
Tue 16:13:09 42.0780 -87.6400 151° Southeast 211 391 3,700 -1,000 Descending FlightAware ADS-B
Tue 16:13:17 42.0730 -87.6370 156° South 207 383 3,600 -923 Descending FlightAware ADS-B
Tue 16:13:22 42.0680 -87.6370 180° South 203 377 3,500 -1,778 Descending FlightAware ADS-B
Tue 16:13:44 42.0480 -87.6510 207° Southwest 197 365 2,800 -1,615 Descending FlightAware ADS-B
Tue 16:13:48 42.0470 -87.6550 251° West 197 365 2,800 -818 Level FlightAware ADS-B
Tue 16:14:06 42.0410 -87.6760 249° West 197 365 2,500 -789 Descending FlightAware ADS-B
Tue 16:14:26 42.0340 -87.6980 247° West 196 364 2,300 -571 Descending FlightAware ADS-B
Tue 16:14:48 42.0260 -87.7210 245° Southwest 190 352 2,100 -450 Descending FlightAware ADS-B
Tue 16:15:06 42.0210 -87.7400 250° West 176 327 2,000  Descending FlightAware ADS-B
Tue 16:15:28 42.0130 -87.7630 245° Southwest 168 311 2,100  Climbing FlightAware ADS-B
Tue 16:15:52 42.0050 -87.7860 245° Southwest 168 311 2,000 -333 Descending FlightAware ADS-B
Tue 16:16:04 42.0030 -87.7990 258° West 170 315 1,900 -600 Descending FlightAware ADS-B
Tue 16:16:22 42.0030 -87.8170 270° West 160 296 1,700 -714 Descending FlightAware ADS-B
Tue 16:16:46 42.0030 -87.8390 270° West 151 280 1,400 -857 Descending FlightAware ADS-B
Tue 16:17:04 42.0030 -87.8560 270° West 145 269 1,100 -857 Descending FlightAware ADS-B
Tue 16:17:28 42.0030 -87.8790 270° West 146 270 800 -667 Descending FlightAware ADS-B
Tue 16:17:49 42.0030 -87.8960 270° West 147 272 600 -571 Descending FlightAware ADS-B
Tue 16:18:11 42.0030 -87.9140 270° West 98 182 -1,636 Descending FlightAware ADS-B
Tue 16:18:38 42.0030 -87.9280 270° West 98 182  Level FlightAware ADS-B

Login

Don't have an account? Register now (free) for customized features, flight alerts, and more!